North Judson, Indiana
Current Conditions -  °F | °C
As of 9:15 PM on Wednesday 22 Oct 2014 (Local Time) from KOXI Reporting Station
Clear Clear  
Wind Chill:   Ceiling: Unl
Heat Index:   Visibility: 3mi
Dew Point:   Wind: 3mph
Humidity: 90%   Direction: 70°ENE
Pressure: 30.27"   Gusts: NA
Location:  41.22°N, 86.78°W
Report Text: KOXI 230215Z AUTO 07003KT 3SM CLR 02/01 A3027 RMK AO1 T00240009
Loading
Personal Weather Stations






























Interactive Weather Map
Tropical Storm Tracking
New forecast layout! Learn more

10-Day Weather Forecast

Advertisements
Track Severe Weather on mobile